createdAt,value
2019-05-22T00:00:08.688Z,85.98
2019-05-22T00:01:08.675Z,85.98
2019-05-22T00:02:08.701Z,85.98
2019-05-22T00:03:08.664Z,85.88
2019-05-22T00:04:08.646Z,85.98
2019-05-22T00:05:08.639Z,85.98
2019-05-22T00:06:08.626Z,85.58
2019-05-22T00:07:08.615Z,85.72
2019-05-22T00:08:08.620Z,85.88
2019-05-22T00:09:08.596Z,85.82
2019-05-22T00:10:08.585Z,85.82
2019-05-22T00:11:08.598Z,85.68
2019-05-22T00:12:08.556Z,85.41
2019-05-22T00:13:08.597Z,85.47
2019-05-22T00:14:08.538Z,85.68
2019-05-22T00:15:08.540Z,85.58
2019-05-22T00:16:08.524Z,85.06
2019-05-22T00:17:08.513Z,85.17
2019-05-22T00:18:08.506Z,84.90
2019-05-22T00:19:08.486Z,84.45
2019-05-22T00:20:08.479Z,84.50
2019-05-22T00:21:08.457Z,84.59
2019-05-22T00:22:08.470Z,84.39
2019-05-22T00:23:08.448Z,84.59
2019-05-22T00:24:08.457Z,84.70
2019-05-22T00:25:08.426Z,84.59
2019-05-22T00:26:08.426Z,84.50
2019-05-22T00:27:08.409Z,84.39
2019-05-22T00:28:08.388Z,84.39
2019-05-22T00:29:08.392Z,84.29
2019-05-22T00:30:08.386Z,84.19
2019-05-22T00:31:08.346Z,83.95
2019-05-22T00:32:08.346Z,83.98
2019-05-22T00:33:08.327Z,83.95
2019-05-22T00:34:08.330Z,83.17
2019-05-22T00:35:08.330Z,83.17
2019-05-22T00:36:08.308Z,83.27
2019-05-22T00:37:08.297Z,83.17
2019-05-22T00:38:08.311Z,83.27
2019-05-22T00:39:08.268Z,83.37
2019-05-22T00:40:08.304Z,83.37
2019-05-22T00:41:08.246Z,83.37
2019-05-22T00:42:08.228Z,83.48
2019-05-22T00:43:13.799Z,83.68
2019-05-22T00:44:09.205Z,83.68
2019-05-22T00:45:08.196Z,83.37
2019-05-22T00:46:08.199Z,83.37
2019-05-22T00:47:08.175Z,83.23
2019-05-22T00:48:08.177Z,83.48
2019-05-22T00:49:08.164Z,83.37
2019-05-22T00:50:08.148Z,83.48
2019-05-22T00:51:08.149Z,83.58
2019-05-22T00:52:08.136Z,83.68
2019-05-22T00:53:08.106Z,83.68
2019-05-22T00:54:08.106Z,83.68
2019-05-22T00:55:08.099Z,83.58
2019-05-22T00:56:08.096Z,83.37
2019-05-22T00:57:08.086Z,83.48
2019-05-22T00:58:08.067Z,83.68
2019-05-22T00:59:08.093Z,83.78
2019-05-22T01:00:08.035Z,83.78
2019-05-22T01:01:08.035Z,83.78
2019-05-22T01:02:08.045Z,83.68
2019-05-22T01:03:08.039Z,83.58
2019-05-22T01:04:08.013Z,83.27
2019-05-22T01:05:08.009Z,83.37
2019-05-22T01:06:07.999Z,83.27
2019-05-22T01:07:07.986Z,83.17
2019-05-22T01:08:07.989Z,83.17
2019-05-22T01:09:07.955Z,83.27
2019-05-22T01:10:08.013Z,83.27
2019-05-22T01:11:07.949Z,83.37
2019-05-22T01:12:07.937Z,83.37
2019-05-22T01:13:07.925Z,83.17
2019-05-22T01:14:07.896Z,83.07
2019-05-22T01:15:07.887Z,82.87
2019-05-22T01:16:07.899Z,83.07
2019-05-22T01:17:07.876Z,82.87
2019-05-22T01:18:07.957Z,82.97
2019-05-22T01:19:07.854Z,82.97
2019-05-22T01:20:07.891Z,83.07
2019-05-22T01:21:07.848Z,83.07
2019-05-22T01:22:07.838Z,83.07
2019-05-22T01:23:07.816Z,83.17
2019-05-22T01:24:07.831Z,83.27
2019-05-22T01:25:07.801Z,83.11
2019-05-22T01:26:07.786Z,83.21
2019-05-22T01:27:07.824Z,83.31
2019-05-22T01:28:07.779Z,83.31
2019-05-22T01:29:07.739Z,83.21
2019-05-22T01:30:07.737Z,83.21
2019-05-22T01:31:07.735Z,83.42
2019-05-22T01:32:07.711Z,83.31
2019-05-22T01:33:07.749Z,83.31
2019-05-22T01:34:07.719Z,83.31
2019-05-22T01:35:07.686Z,83.21
2019-05-22T01:36:07.676Z,83.21
2019-05-22T01:37:07.659Z,83.21
2019-05-22T01:38:07.655Z,83.21
2019-05-22T01:39:07.636Z,83.11
2019-05-22T01:40:07.625Z,83.21
2019-05-22T01:41:07.626Z,83.11
2019-05-22T01:42:07.669Z,83.11
2019-05-22T01:43:07.609Z,83.01
2019-05-22T01:44:07.576Z,83.11
2019-05-22T01:45:07.575Z,82.90
2019-05-22T01:46:07.559Z,83.01
2019-05-22T01:47:07.545Z,83.11
2019-05-22T01:48:07.545Z,83.11
2019-05-22T01:49:07.538Z,83.11
2019-05-22T01:50:07.521Z,83.11
2019-05-22T01:51:07.520Z,83.11
2019-05-22T01:52:07.505Z,82.70
2019-05-22T01:53:07.494Z,82.80
2019-05-22T01:54:07.507Z,82.90
2019-05-22T01:55:07.475Z,83.11
2019-05-22T01:56:07.440Z,82.90
2019-05-22T01:57:07.438Z,82.90
2019-05-22T01:58:07.428Z,82.90
2019-05-22T01:59:07.404Z,82.80
2019-05-22T02:00:07.397Z,82.80
2019-05-22T02:01:07.406Z,82.90
2019-05-22T02:02:07.385Z,82.90
2019-05-22T02:03:07.378Z,82.90
2019-05-22T02:04:07.346Z,82.80
2019-05-22T02:05:07.341Z,82.70
2019-05-22T02:06:07.389Z,82.70
2019-05-22T02:07:07.339Z,82.60
2019-05-22T02:08:07.337Z,82.70
2019-05-22T02:09:07.295Z,82.90
2019-05-22T02:10:07.278Z,82.70
2019-05-22T02:11:07.285Z,82.70
2019-05-22T02:12:07.255Z,82.80
2019-05-22T02:13:07.548Z,82.70
2019-05-22T02:14:07.305Z,82.90
2019-05-22T02:15:07.235Z,82.80
2019-05-22T02:16:07.226Z,82.90
2019-05-22T02:17:07.207Z,83.11
2019-05-22T02:18:07.225Z,83.01
2019-05-22T02:19:07.186Z,83.11
2019-05-22T02:20:08.065Z,83.11
2019-05-22T02:21:07.174Z,83.11
2019-05-22T02:22:07.173Z,83.01
2019-05-22T02:23:07.159Z,83.01
2019-05-22T02:24:07.142Z,83.01
2019-05-22T02:25:07.139Z,83.11
2019-05-22T02:26:07.110Z,83.21
2019-05-22T02:27:07.133Z,83.21
2019-05-22T02:28:07.087Z,83.31
2019-05-22T02:29:07.097Z,83.42
2019-05-22T02:30:07.085Z,83.42
2019-05-22T02:31:07.081Z,83.51
2019-05-22T02:32:07.071Z,83.62
2019-05-22T02:33:07.076Z,83.72
2019-05-22T02:34:07.046Z,83.72
2019-05-22T02:35:07.073Z,83.72
2019-05-22T02:36:07.024Z,83.72
2019-05-22T02:37:07.000Z,83.72
2019-05-22T02:38:07.052Z,83.62
2019-05-22T02:39:06.965Z,83.72
2019-05-22T02:40:06.976Z,83.82
2019-05-22T02:41:06.948Z,84.06
2019-05-22T02:42:06.997Z,84.06
2019-05-22T02:43:06.930Z,84.06
2019-05-22T02:44:06.915Z,84.06
2019-05-22T02:45:08.247Z,84.17
2019-05-22T02:46:06.915Z,83.96
2019-05-22T02:47:18.963Z,83.96
2019-05-22T02:48:07.898Z,84.06
2019-05-22T02:49:06.865Z,84.06
2019-05-22T02:50:06.845Z,84.06
2019-05-22T02:51:06.959Z,84.06
2019-05-22T02:52:06.858Z,84.17
2019-05-22T02:53:06.968Z,84.17
2019-05-22T02:54:06.805Z,84.27
2019-05-22T02:55:06.807Z,84.27
2019-05-22T02:56:06.786Z,84.37
2019-05-22T02:57:06.777Z,84.37
2019-05-22T02:58:06.767Z,84.47
2019-05-22T02:59:06.782Z,84.47
2019-05-22T03:00:06.765Z,84.47
2019-05-22T03:01:06.739Z,84.47
2019-05-22T03:02:06.734Z,84.47
2019-05-22T03:03:06.725Z,84.47
2019-05-22T03:04:06.709Z,84.37
2019-05-22T03:05:06.743Z,84.37
2019-05-22T03:06:06.698Z,84.17
2019-05-22T03:07:06.686Z,84.17
2019-05-22T03:08:06.668Z,84.37
2019-05-22T03:09:06.679Z,84.27
2019-05-22T03:10:06.635Z,84.17
2019-05-22T03:11:06.630Z,84.17
2019-05-22T03:12:06.609Z,83.86
2019-05-22T03:13:06.615Z,83.86
2019-05-22T03:14:06.618Z,83.86
2019-05-22T03:15:06.587Z,83.86
2019-05-22T03:16:06.586Z,83.86
2019-05-22T03:17:06.557Z,83.76
2019-05-22T03:18:06.536Z,83.76
2019-05-22T03:19:09.226Z,83.76
2019-05-22T03:20:06.517Z,83.76
2019-05-22T03:21:06.515Z,83.86
2019-05-22T03:22:06.504Z,84.00
2019-05-22T03:23:06.517Z,84.11
2019-05-22T03:24:06.498Z,84.20
2019-05-22T03:25:06.478Z,84.51
2019-05-22T03:26:06.456Z,84.61
2019-05-22T03:27:06.456Z,84.72
2019-05-22T03:28:06.446Z,84.72
2019-05-22T03:29:06.468Z,84.72
2019-05-22T03:30:06.416Z,84.82
2019-05-22T03:31:06.404Z,84.82
2019-05-22T03:32:06.406Z,84.92
2019-05-22T03:33:06.454Z,84.92
2019-05-22T03:34:06.391Z,85.02
2019-05-22T03:35:06.395Z,85.02
2019-05-22T03:36:06.379Z,85.02
2019-05-22T03:37:06.357Z,85.22
2019-05-22T03:38:06.327Z,85.33
2019-05-22T03:39:06.326Z,85.43
2019-05-22T03:40:06.358Z,85.57
2019-05-22T03:41:06.296Z,85.68
2019-05-22T03:42:06.286Z,85.68
2019-05-22T03:43:06.285Z,85.77
2019-05-22T03:44:06.268Z,85.47
2019-05-22T03:45:06.260Z,85.68
2019-05-22T03:46:06.279Z,85.77
2019-05-22T03:47:06.233Z,85.77
2019-05-22T03:48:06.252Z,85.68
2019-05-22T03:49:06.225Z,85.47
2019-05-22T03:50:06.203Z,85.57
2019-05-22T03:51:06.185Z,85.68
2019-05-22T03:52:06.175Z,85.68
2019-05-22T03:53:06.191Z,85.68
2019-05-22T03:54:06.150Z,85.47
2019-05-22T03:55:06.179Z,85.27
2019-05-22T03:56:06.179Z,85.37
2019-05-22T03:57:06.117Z,85.37
2019-05-22T03:58:06.134Z,85.16
2019-05-22T03:59:06.116Z,85.06
2019-05-22T04:00:06.117Z,85.06
2019-05-22T04:01:06.115Z,84.96
2019-05-22T04:02:06.089Z,84.96
2019-05-22T04:03:06.057Z,84.96
2019-05-22T04:04:06.106Z,85.06
2019-05-22T04:05:06.038Z,84.75
2019-05-22T04:06:06.058Z,84.66
2019-05-22T04:07:06.014Z,84.75
2019-05-22T04:08:06.027Z,84.86
2019-05-22T04:09:05.998Z,84.75
2019-05-22T04:10:06.021Z,84.66
2019-05-22T04:11:05.986Z,84.55
2019-05-22T04:12:06.013Z,84.55
2019-05-22T04:13:05.968Z,84.55
2019-05-22T04:14:05.936Z,84.55
2019-05-22T04:15:05.961Z,84.66
2019-05-22T04:16:05.916Z,84.66
2019-05-22T04:17:05.914Z,84.75
2019-05-22T04:18:05.907Z,84.75
2019-05-22T04:19:05.896Z,84.66
2019-05-22T04:20:05.881Z,84.66
2019-05-22T04:21:05.909Z,84.75
2019-05-22T04:22:05.876Z,84.55
2019-05-22T04:23:05.835Z,84.75
2019-05-22T04:24:05.829Z,84.66
2019-05-22T04:25:05.827Z,84.75
2019-05-22T04:26:05.814Z,84.75
2019-05-22T04:27:05.838Z,84.86
2019-05-22T04:28:05.794Z,84.96
2019-05-22T04:29:05.815Z,84.96
2019-05-22T04:30:05.767Z,85.06
2019-05-22T04:31:06.401Z,84.96
2019-05-22T04:32:05.755Z,84.96
2019-05-22T04:33:05.735Z,84.96
2019-05-22T04:34:05.745Z,84.66
2019-05-22T04:35:05.711Z,84.45
2019-05-22T04:36:09.951Z,84.45
2019-05-22T04:37:05.697Z,84.45
2019-05-22T04:38:05.735Z,84.25
2019-05-22T04:39:05.715Z,84.04
2019-05-22T04:40:05.668Z,83.94
2019-05-22T04:41:05.648Z,83.63
2019-05-22T04:42:05.649Z,83.53
2019-05-22T04:43:05.616Z,83.63
2019-05-22T04:44:05.681Z,83.53
2019-05-22T04:45:05.607Z,83.33
2019-05-22T04:46:05.618Z,83.23
2019-05-22T04:47:05.598Z,83.23
2019-05-22T04:48:05.577Z,83.12
2019-05-22T04:49:05.564Z,83.02
2019-05-22T04:50:07.927Z,83.02
2019-05-22T04:51:05.567Z,82.92
2019-05-22T04:52:05.583Z,82.71
2019-05-22T04:53:05.528Z,82.82
2019-05-22T04:54:05.508Z,82.71
2019-05-22T04:55:05.499Z,83.02
2019-05-22T04:56:05.488Z,83.12
2019-05-22T04:57:05.485Z,82.92
2019-05-22T04:58:05.486Z,82.92
2019-05-22T04:59:05.479Z,83.02
2019-05-22T05:00:05.436Z,82.82
2019-05-22T05:01:05.438Z,82.82
2019-05-22T05:02:05.421Z,82.82
2019-05-22T05:03:05.411Z,82.92
2019-05-22T05:04:05.406Z,83.02
2019-05-22T05:05:05.400Z,83.12
2019-05-22T05:06:06.928Z,82.92
2019-05-22T05:07:05.364Z,82.71
2019-05-22T05:08:05.356Z,82.71
2019-05-22T05:09:05.350Z,82.51
2019-05-22T05:10:05.345Z,82.41
2019-05-22T05:11:05.314Z,81.59
2019-05-22T05:12:05.316Z,81.70
2019-05-22T05:13:05.315Z,81.70
2019-05-22T05:14:05.295Z,81.80
2019-05-22T05:15:05.278Z,81.80
2019-05-22T05:16:05.275Z,81.39
2019-05-22T05:17:05.256Z,81.59
2019-05-22T05:18:05.257Z,81.49
2019-05-22T05:19:05.245Z,81.18
2019-05-22T05:20:05.262Z,81.09
2019-05-22T05:21:05.214Z,80.88
2019-05-22T05:22:05.247Z,80.88
2019-05-22T05:23:05.212Z,80.84
2019-05-22T05:24:05.210Z,80.64
2019-05-22T05:25:05.174Z,80.54
2019-05-22T05:26:05.205Z,80.33
2019-05-22T05:27:05.167Z,80.23
2019-05-22T05:28:05.303Z,79.93
2019-05-22T05:29:05.166Z,80.13
2019-05-22T05:30:05.135Z,80.02
2019-05-22T05:31:05.116Z,80.02
2019-05-22T05:32:05.146Z,79.58
2019-05-22T05:33:05.126Z,79.38
2019-05-22T05:34:05.075Z,79.27
2019-05-22T05:35:05.460Z,79.17
2019-05-22T05:36:05.046Z,79.27
2019-05-22T05:37:05.068Z,78.97
2019-05-22T05:38:05.029Z,78.77
2019-05-22T05:39:05.016Z,78.77
2019-05-22T05:40:05.097Z,79.07
2019-05-22T05:41:04.995Z,79.32
2019-05-22T05:42:04.988Z,79.38
2019-05-22T05:43:04.976Z,79.27
2019-05-22T05:44:04.984Z,78.97
2019-05-22T05:45:04.954Z,79.17
2019-05-22T05:46:04.955Z,79.07
2019-05-22T05:47:04.950Z,79.07
2019-05-22T05:48:04.924Z,79.27
2019-05-22T05:49:04.927Z,79.41
2019-05-22T05:50:04.916Z,79.21
2019-05-22T05:51:04.909Z,79.41
2019-05-22T05:52:04.873Z,79.62
2019-05-22T05:53:04.865Z,79.38
2019-05-22T05:54:04.858Z,78.91
2019-05-22T05:55:04.871Z,79.21
2019-05-22T05:56:04.845Z,79.52
2019-05-22T05:57:04.845Z,79.52
2019-05-22T05:58:04.818Z,79.41
2019-05-22T05:59:04.961Z,79.21
2019-05-22T06:00:04.850Z,79.89
2019-05-22T06:01:04.801Z,79.07
2019-05-22T06:02:04.776Z,78.56
2019-05-22T06:03:04.769Z,78.66
2019-05-22T06:04:04.744Z,78.66
2019-05-22T06:05:04.746Z,78.36
2019-05-22T06:06:04.751Z,78.42
2019-05-22T06:07:04.743Z,78.32
2019-05-22T06:08:04.717Z,78.02
2019-05-22T06:09:04.713Z,77.40
2019-05-22T06:10:04.725Z,77.20
2019-05-22T06:11:04.686Z,76.45
2019-05-22T06:12:05.733Z,76.04
2019-05-22T06:13:04.653Z,76.15
2019-05-22T06:14:04.648Z,75.74
2019-05-22T06:15:04.651Z,75.74
2019-05-22T06:16:04.724Z,75.84
2019-05-22T06:17:04.617Z,75.64
2019-05-22T06:18:04.594Z,75.33
2019-05-22T06:19:04.585Z,74.93
2019-05-22T06:20:04.586Z,75.13
2019-05-22T06:21:04.835Z,75.23
2019-05-22T06:22:04.570Z,75.20
2019-05-22T06:23:04.560Z,74.99
2019-05-22T06:24:04.550Z,74.69
2019-05-22T06:25:04.873Z,74.18
2019-05-22T06:26:04.519Z,74.08
2019-05-22T06:27:04.502Z,73.74
2019-05-22T06:28:04.495Z,73.74
2019-05-22T06:29:04.475Z,73.43
2019-05-22T06:30:04.466Z,73.23
2019-05-22T06:31:04.468Z,73.13
2019-05-22T06:32:04.448Z,73.02
2019-05-22T06:33:04.443Z,72.92
2019-05-22T06:34:04.438Z,72.72
2019-05-22T06:35:04.418Z,72.92
2019-05-22T06:36:04.412Z,73.26
2019-05-22T06:37:04.400Z,73.57
2019-05-22T06:38:04.501Z,73.84
2019-05-22T06:39:04.392Z,73.54
2019-05-22T06:40:04.381Z,73.47
2019-05-22T06:41:04.358Z,73.77
2019-05-22T06:42:04.337Z,74.08
2019-05-22T06:43:04.343Z,74.58
2019-05-22T06:44:04.317Z,75.09
2019-05-22T06:45:04.904Z,75.09
2019-05-22T06:46:04.325Z,75.13
2019-05-22T06:47:04.299Z,75.43
2019-05-22T06:48:04.273Z,75.64
2019-05-22T06:49:04.260Z,75.64
2019-05-22T06:50:04.254Z,75.95
2019-05-22T06:51:18.488Z,76.25
2019-05-22T06:52:05.246Z,76.25
2019-05-22T06:53:09.770Z,75.95
2019-05-22T06:54:05.204Z,75.95
2019-05-22T06:55:04.230Z,76.25
2019-05-22T06:56:04.184Z,76.45
2019-05-22T06:57:04.176Z,76.45
2019-05-22T06:58:04.164Z,76.04
2019-05-22T06:59:04.188Z,76.28
2019-05-22T07:00:14.462Z,76.39
2019-05-22T07:01:05.124Z,76.79
2019-05-22T07:02:04.133Z,77.10
2019-05-22T07:03:04.117Z,77.10
2019-05-22T07:04:04.102Z,77.30
2019-05-22T07:05:04.084Z,77.55
2019-05-22T07:06:04.193Z,78.05
2019-05-22T07:07:04.326Z,78.16
2019-05-22T07:08:04.069Z,78.46
2019-05-22T07:09:04.059Z,78.56
2019-05-22T07:10:04.034Z,79.27
2019-05-22T07:11:04.037Z,79.41
2019-05-22T07:12:04.085Z,79.93
2019-05-22T07:13:04.026Z,80.02
2019-05-22T07:14:03.984Z,79.89
2019-05-22T07:15:04.004Z,78.87
2019-05-22T07:16:03.963Z,79.11
2019-05-22T07:17:03.954Z,79.21
2019-05-22T07:18:03.943Z,78.91
2019-05-22T07:19:03.946Z,79.07
2019-05-22T07:20:03.924Z,78.46
2019-05-22T07:21:03.924Z,78.46
2019-05-22T07:22:03.918Z,78.26
2019-05-22T07:23:04.304Z,78.16
2019-05-22T07:24:03.894Z,77.95
2019-05-22T07:25:03.873Z,77.75
2019-05-22T07:26:03.867Z,77.44
2019-05-22T07:27:03.867Z,77.64
2019-05-22T07:28:03.844Z,77.44
2019-05-22T07:29:05.144Z,77.00
2019-05-22T07:30:03.869Z,76.90
2019-05-22T07:31:03.817Z,76.79
2019-05-22T07:32:03.800Z,76.49
2019-05-22T07:33:03.784Z,76.39
2019-05-22T07:34:03.775Z,75.78
2019-05-22T07:35:03.762Z,75.67
2019-05-22T07:36:16.006Z,75.37
2019-05-22T07:37:04.753Z,75.33
2019-05-22T07:38:03.744Z,75.23
2019-05-22T07:39:03.774Z,75.33
2019-05-22T07:40:03.737Z,75.13
2019-05-22T07:41:03.716Z,74.93
2019-05-22T07:42:03.693Z,75.02
2019-05-22T07:43:03.715Z,75.02
2019-05-22T07:44:03.663Z,75.02
2019-05-22T07:45:03.654Z,74.82
2019-05-22T07:46:03.656Z,74.28
2019-05-22T07:47:03.633Z,73.77
2019-05-22T07:48:03.695Z,73.67
2019-05-22T07:49:03.643Z,73.87
2019-05-22T07:50:03.609Z,73.57
2019-05-22T07:51:03.600Z,73.36
2019-05-22T07:52:03.583Z,72.99
2019-05-22T07:53:03.572Z,73.40
2019-05-22T07:54:03.576Z,73.16
2019-05-22T07:55:03.607Z,72.75
2019-05-22T07:56:03.540Z,72.89
2019-05-22T07:57:03.527Z,72.99
2019-05-22T07:58:03.513Z,72.69
2019-05-22T07:59:03.517Z,71.97
2019-05-22T08:00:03.495Z,72.04
2019-05-22T08:01:03.507Z,72.25
2019-05-22T08:02:03.472Z,71.73
2019-05-22T08:03:03.452Z,71.73
2019-05-22T08:04:03.452Z,71.33
2019-05-22T08:05:03.435Z,70.41
2019-05-22T08:06:03.454Z,70.72
2019-05-22T08:07:03.412Z,70.68
2019-05-22T08:08:03.405Z,70.28
2019-05-22T08:09:03.405Z,69.74
2019-05-22T08:10:03.383Z,68.62
2019-05-22T08:11:03.380Z,68.79
2019-05-22T08:12:03.367Z,68.45
2019-05-22T08:13:03.844Z,67.94
2019-05-22T08:14:03.353Z,67.71
2019-05-22T08:15:03.336Z,67.00
2019-05-22T08:16:03.323Z,66.66
2019-05-22T08:17:03.339Z,65.95
2019-05-22T08:18:03.292Z,65.62
2019-05-22T08:19:03.285Z,65.82
2019-05-22T08:20:03.275Z,64.91
2019-05-22T08:21:03.545Z,64.20
2019-05-22T08:22:07.470Z,64.50
2019-05-22T08:23:03.243Z,64.10
2019-05-22T08:24:03.321Z,64.30
2019-05-22T08:25:03.214Z,64.91
2019-05-22T08:26:03.215Z,65.82
2019-05-22T08:27:03.204Z,64.81
2019-05-22T08:28:03.183Z,64.61
2019-05-22T08:29:03.254Z,64.50
2019-05-22T08:30:03.176Z,63.96
2019-05-22T08:31:03.177Z,63.66
2019-05-22T08:32:03.157Z,63.96
2019-05-22T08:33:03.134Z,63.66
2019-05-22T08:34:03.142Z,64.07
2019-05-22T08:35:03.335Z,63.35
2019-05-22T08:36:03.121Z,63.26
2019-05-22T08:37:03.134Z,63.76
2019-05-22T08:38:03.074Z,64.27
2019-05-22T08:39:03.072Z,64.47
2019-05-22T08:40:03.181Z,63.63
2019-05-22T08:41:03.048Z,63.46
2019-05-22T08:42:03.056Z,63.26
2019-05-22T08:43:03.043Z,63.56
2019-05-22T08:44:16.125Z,63.46
2019-05-22T08:45:04.002Z,63.79
2019-05-22T08:46:03.240Z,64.30
2019-05-22T08:47:03.186Z,65.04
2019-05-22T08:48:02.985Z,65.42
2019-05-22T08:49:02.963Z,64.91
2019-05-22T08:50:02.971Z,65.04
2019-05-22T08:51:02.973Z,65.65
2019-05-22T08:52:02.933Z,65.85
2019-05-22T08:53:02.991Z,65.85
2019-05-22T08:54:05.947Z,65.95
2019-05-22T08:55:02.902Z,65.72
2019-05-22T08:56:02.910Z,66.13
2019-05-22T08:57:02.875Z,66.02
2019-05-22T08:58:02.873Z,66.13
2019-05-22T08:59:18.387Z,66.02
2019-05-22T09:00:03.831Z,66.02
2019-05-22T09:01:02.970Z,65.99
2019-05-22T09:02:02.868Z,65.89
2019-05-22T09:03:02.856Z,66.09
2019-05-22T09:04:02.835Z,65.56
2019-05-22T09:05:02.791Z,63.86
2019-05-22T09:06:02.852Z,63.66
2019-05-22T09:07:02.796Z,62.95
2019-05-22T09:08:02.782Z,63.06
2019-05-22T09:09:02.764Z,62.54
2019-05-22T09:10:02.765Z,62.45
2019-05-22T09:11:02.962Z,62.95
2019-05-22T09:12:02.763Z,62.88
2019-05-22T09:13:02.711Z,62.98
2019-05-22T09:14:02.712Z,63.29
2019-05-22T09:15:02.685Z,63.62
2019-05-22T09:16:02.705Z,64.23
2019-05-22T09:17:02.654Z,64.13
2019-05-22T09:18:02.673Z,64.53
2019-05-22T09:19:02.652Z,64.64
2019-05-22T09:20:02.672Z,64.50
2019-05-22T09:21:02.624Z,64.30
2019-05-22T09:22:02.604Z,64.07
2019-05-22T09:23:02.606Z,63.35
2019-05-22T09:24:02.604Z,63.12
2019-05-22T09:25:03.035Z,61.51
2019-05-22T09:26:02.575Z,61.78
2019-05-22T09:27:03.216Z,62.08
2019-05-22T09:28:02.562Z,62.08
2019-05-22T09:29:02.532Z,61.78
2019-05-22T09:30:02.537Z,61.58
2019-05-22T09:31:02.504Z,60.97
2019-05-22T09:32:02.596Z,61.58
2019-05-22T09:33:02.499Z,61.37
2019-05-22T09:34:02.543Z,61.91
2019-05-22T09:35:02.485Z,62.41
2019-05-22T09:36:02.527Z,62.52
2019-05-22T09:37:02.460Z,62.01
2019-05-22T09:38:02.432Z,60.79
2019-05-22T09:39:02.422Z,61.60
2019-05-22T09:40:02.430Z,61.00
2019-05-22T09:41:02.402Z,60.69
2019-05-22T09:42:02.391Z,60.66
2019-05-22T09:43:02.394Z,60.36
2019-05-22T09:44:02.430Z,59.63
2019-05-22T09:45:02.366Z,59.52
2019-05-22T09:46:02.361Z,59.75
2019-05-22T09:47:02.345Z,59.85
2019-05-22T09:48:02.348Z,59.65
2019-05-22T09:49:02.311Z,59.55
2019-05-22T09:50:02.325Z,59.14
2019-05-22T09:51:02.292Z,59.25
2019-05-22T09:52:02.315Z,59.55
2019-05-22T09:53:02.272Z,59.32
2019-05-22T09:54:02.269Z,59.12
2019-05-22T09:55:02.243Z,58.92
2019-05-22T09:56:02.245Z,58.48
2019-05-22T09:57:02.309Z,58.58
2019-05-22T09:58:02.234Z,58.48
2019-05-22T09:59:02.204Z,58.96
2019-05-22T10:00:02.420Z,58.02
2019-05-22T10:01:02.191Z,57.82
2019-05-22T10:02:02.198Z,57.92
2019-05-22T10:03:02.161Z,57.62
2019-05-22T10:04:02.141Z,56.68
2019-05-22T10:05:02.201Z,56.10
2019-05-22T10:06:02.450Z,57.01
2019-05-22T10:07:03.481Z,56.91
2019-05-22T10:08:03.369Z,57.82
2019-05-22T10:09:02.254Z,57.31
2019-05-22T10:10:02.081Z,57.42
2019-05-22T10:11:02.080Z,57.65
2019-05-22T10:12:02.072Z,57.92
2019-05-22T10:13:02.060Z,56.81
2019-05-22T10:14:02.063Z,57.42
2019-05-22T10:15:03.526Z,56.91
2019-05-22T10:16:02.021Z,57.29
2019-05-22T10:17:02.012Z,56.56
2019-05-22T10:18:02.012Z,56.88
2019-05-22T10:19:02.033Z,57.18
2019-05-22T10:20:02.291Z,57.49
2019-05-22T10:21:01.975Z,58.40
2019-05-22T10:22:02.045Z,57.29
2019-05-22T10:23:14.985Z,56.78
2019-05-22T10:24:02.967Z,54.94
2019-05-22T10:25:14.602Z,55.14
2019-05-22T10:26:02.933Z,55.85
2019-05-22T10:27:01.911Z,55.92
2019-05-22T10:28:01.944Z,56.12
2019-05-22T10:29:01.882Z,55.49
2019-05-22T10:30:01.989Z,54.91
2019-05-22T10:31:02.229Z,55.32
2019-05-22T10:32:01.859Z,55.62
2019-05-22T10:33:01.841Z,55.69
2019-05-22T10:34:01.855Z,55.09
2019-05-22T10:35:01.831Z,54.99
2019-05-22T10:36:01.820Z,55.06
2019-05-22T10:37:01.791Z,54.28
2019-05-22T10:38:01.791Z,54.79
2019-05-22T10:39:01.794Z,55.62
2019-05-22T10:40:01.762Z,56.25
2019-05-22T10:41:01.774Z,57.09
2019-05-22T10:42:01.762Z,56.58
2019-05-22T10:43:02.621Z,56.38
2019-05-22T10:44:02.002Z,56.78
2019-05-22T10:45:03.099Z,56.15
2019-05-22T10:46:02.286Z,55.74
2019-05-22T10:47:01.691Z,56.05
2019-05-22T10:48:01.691Z,56.65
2019-05-22T10:49:01.675Z,55.85
2019-05-22T10:50:01.654Z,56.52
2019-05-22T10:51:01.668Z,55.62
2019-05-22T10:52:01.646Z,54.94
2019-05-22T10:53:01.653Z,55.82
2019-05-22T10:54:01.673Z,56.02
2019-05-22T10:55:01.593Z,55.72
2019-05-22T10:56:01.615Z,54.10
2019-05-22T10:57:01.597Z,54.41
2019-05-22T10:58:01.577Z,53.50
2019-05-22T10:59:01.898Z,53.60
2019-05-22T11:00:01.732Z,53.58
2019-05-22T11:01:01.712Z,53.38
2019-05-22T11:02:01.852Z,54.18
2019-05-22T11:03:01.511Z,53.14
2019-05-22T11:04:01.519Z,52.62
2019-05-22T11:05:01.514Z,53.22
2019-05-22T11:06:07.243Z,53.52
2019-05-22T11:07:02.493Z,53.45
2019-05-22T11:08:01.484Z,52.84
2019-05-22T11:09:01.462Z,53.45
2019-05-22T11:10:01.471Z,54.18
2019-05-22T11:11:01.442Z,54.25
2019-05-22T11:12:01.416Z,54.36
2019-05-22T11:13:01.437Z,54.46
2019-05-22T11:14:02.224Z,54.03
2019-05-22T11:15:01.408Z,53.96
2019-05-22T11:16:01.419Z,53.55
2019-05-22T11:17:01.647Z,53.65
2019-05-22T11:18:01.362Z,54.46
2019-05-22T11:19:01.351Z,54.36
2019-05-22T11:20:01.400Z,54.23
2019-05-22T11:21:01.321Z,54.73
2019-05-22T11:22:01.388Z,53.65
2019-05-22T11:23:01.319Z,53.58
2019-05-22T11:24:01.293Z,54.41
2019-05-22T11:25:01.275Z,54.21
2019-05-22T11:26:01.286Z,54.31
2019-05-22T11:27:01.284Z,55.14
2019-05-22T11:28:01.254Z,55.92
2019-05-22T11:29:01.233Z,55.01
2019-05-22T11:30:01.245Z,55.39
2019-05-22T11:31:01.213Z,55.36
2019-05-22T11:32:01.207Z,54.23
2019-05-22T11:33:01.219Z,52.69
2019-05-22T11:34:01.188Z,52.29
2019-05-22T11:35:01.310Z,52.19
2019-05-22T11:36:01.163Z,51.99
2019-05-22T11:37:01.144Z,51.48
2019-05-22T11:38:01.172Z,51.48
2019-05-22T11:39:01.130Z,52.92
2019-05-22T11:40:01.152Z,52.80
2019-05-22T11:41:01.122Z,51.26
2019-05-22T11:42:01.102Z,51.76
2019-05-22T11:43:01.091Z,51.46
2019-05-22T11:44:01.098Z,51.64
2019-05-22T11:45:01.072Z,51.66
2019-05-22T11:46:01.095Z,51.56
2019-05-22T11:47:01.045Z,52.26
2019-05-22T11:48:01.023Z,51.43
2019-05-22T11:49:01.023Z,51.61
2019-05-22T11:50:01.033Z,49.32
2019-05-22T11:51:01.282Z,50.40
2019-05-22T11:52:00.993Z,50.51
2019-05-22T11:53:00.986Z,50.13
2019-05-22T11:54:09.031Z,51.21
2019-05-22T11:55:01.962Z,51.64
2019-05-22T11:56:00.943Z,51.84
2019-05-22T11:57:00.942Z,51.76
2019-05-22T11:58:00.926Z,51.46
2019-05-22T11:59:00.922Z,51.68
2019-05-22T12:00:00.918Z,51.68
2019-05-22T12:01:00.906Z,52.17
2019-05-22T12:02:00.883Z,50.73
2019-05-22T12:03:00.875Z,50.13
2019-05-22T12:04:00.874Z,50.31
2019-05-22T12:05:00.858Z,49.70
2019-05-22T12:06:00.853Z,48.72
2019-05-22T12:07:00.833Z,49.50
2019-05-22T12:08:00.833Z,49.90
2019-05-22T12:09:00.814Z,49.62
2019-05-22T12:10:00.794Z,49.70
2019-05-22T12:11:00.799Z,49.50
2019-05-22T12:12:00.774Z,49.82
2019-05-22T12:13:00.782Z,50.53
2019-05-22T12:14:00.753Z,50.33
2019-05-22T12:15:00.746Z,50.23
2019-05-22T12:16:00.744Z,50.02
2019-05-22T12:17:00.735Z,50.05
2019-05-22T12:18:00.713Z,50.15
2019-05-22T12:19:00.705Z,49.85
2019-05-22T12:20:00.714Z,50.85
2019-05-22T12:21:00.677Z,50.45
2019-05-22T12:22:00.663Z,50.76
2019-05-22T12:23:00.659Z,50.15
2019-05-22T12:24:00.633Z,49.75
2019-05-22T12:25:00.643Z,50.45
2019-05-22T12:26:00.633Z,49.55
2019-05-22T12:27:00.614Z,49.42
2019-05-22T12:28:00.604Z,49.02
2019-05-22T12:29:00.584Z,49.65
2019-05-22T12:30:00.592Z,49.55
2019-05-22T12:31:00.683Z,50.15
2019-05-22T12:32:00.643Z,50.73
2019-05-22T12:33:00.597Z,49.42
2019-05-22T12:34:00.532Z,49.60
2019-05-22T12:35:00.544Z,49.70
2019-05-22T12:36:00.535Z,49.30
2019-05-22T12:37:00.503Z,48.39
2019-05-22T12:38:01.039Z,48.49
2019-05-22T12:39:00.495Z,48.69
2019-05-22T12:40:00.497Z,48.79
2019-05-22T12:41:00.593Z,48.57
2019-05-22T12:42:00.461Z,48.29
2019-05-22T12:43:00.441Z,48.59
2019-05-22T12:44:00.443Z,49.10
2019-05-22T12:45:00.413Z,48.99
2019-05-22T12:46:00.413Z,48.79
2019-05-22T12:47:00.426Z,49.10
2019-05-22T12:48:00.406Z,48.49
2019-05-22T12:49:00.395Z,48.69
2019-05-22T12:50:00.414Z,48.79
2019-05-22T12:51:00.371Z,48.99
2019-05-22T12:52:00.355Z,48.21